sensor_id;sensor_type;location;lat;lon;timestamp;pressure;altitude;pressure_sealevel;temperature
15575;BMP180;7888;46.748;8.102;2024-03-23T00:55:13;93802.00;;;13.90
15575;BMP180;7888;46.748;8.102;2024-03-23T00:57:39;93796.00;;;13.90
15575;BMP180;7888;46.748;8.102;2024-03-23T01:00:06;93792.00;;;13.90
15575;BMP180;7888;46.748;8.102;2024-03-23T01:02:32;93775.00;;;13.90
15575;BMP180;7888;46.748;8.102;2024-03-23T01:04:58;93783.00;;;13.80
15575;BMP180;7888;46.748;8.102;2024-03-23T01:07:24;93753.00;;;13.80
15575;BMP180;7888;46.748;8.102;2024-03-23T01:09:50;93764.00;;;13.80
15575;BMP180;7888;46.748;8.102;2024-03-23T01:12:17;93782.00;;;13.80
15575;BMP180;7888;46.748;8.102;2024-03-23T01:14:43;93746.00;;;13.80
15575;BMP180;7888;46.748;8.102;2024-03-23T01:17:08;93762.00;;;13.70
15575;BMP180;7888;46.748;8.102;2024-03-23T01:19:34;93763.00;;;13.70
15575;BMP180;7888;46.748;8.102;2024-03-23T01:22:00;93763.00;;;13.70
15575;BMP180;7888;46.748;8.102;2024-03-23T01:24:26;93749.00;;;13.70
15575;BMP180;7888;46.748;8.102;2024-03-23T01:26:51;93749.00;;;13.70
15575;BMP180;7888;46.748;8.102;2024-03-23T01:29:17;93748.00;;;13.60
15575;BMP180;7888;46.748;8.102;2024-03-23T01:31:43;93734.00;;;13.60
15575;BMP180;7888;46.748;8.102;2024-03-23T01:34:08;93736.00;;;13.60
15575;BMP180;7888;46.748;8.102;2024-03-23T01:36:34;93729.00;;;13.60
15575;BMP180;7888;46.748;8.102;2024-03-23T01:39:00;93742.00;;;13.60
15575;BMP180;7888;46.748;8.102;2024-03-23T01:41:25;93748.00;;;13.60
15575;BMP180;7888;46.748;8.102;2024-03-23T01:43:51;93740.00;;;13.50
15575;BMP180;7888;46.748;8.102;2024-03-23T01:46:18;93710.00;;;13.50
15575;BMP180;7888;46.748;8.102;2024-03-23T01:48:45;93729.00;;;13.50
15575;BMP180;7888;46.748;8.102;2024-03-23T01:51:12;93721.00;;;13.50
15575;BMP180;7888;46.748;8.102;2024-03-23T01:53:38;93717.00;;;13.50
15575;BMP180;7888;46.748;8.102;2024-03-23T01:56:05;93718.00;;;13.50
15575;BMP180;7888;46.748;8.102;2024-03-23T01:58:31;93716.00;;;13.50
15575;BMP180;7888;46.748;8.102;2024-03-23T02:00:58;93706.00;;;13.50
15575;BMP180;7888;46.748;8.102;2024-03-23T02:03:25;93708.00;;;13.40
15575;BMP180;7888;46.748;8.102;2024-03-23T02:05:54;93692.00;;;13.40
15575;BMP180;7888;46.748;8.102;2024-03-23T02:08:21;93698.00;;;13.40
15575;BMP180;7888;46.748;8.102;2024-03-23T02:10:49;93693.00;;;13.30
15575;BMP180;7888;46.748;8.102;2024-03-23T02:13:17;93692.00;;;13.30
15575;BMP180;7888;46.748;8.102;2024-03-23T02:15:43;93670.00;;;13.10
15575;BMP180;7888;46.748;8.102;2024-03-23T02:18:08;93684.00;;;13.30
15575;BMP180;7888;46.748;8.102;2024-03-23T02:20:38;93687.00;;;13.30
15575;BMP180;7888;46.748;8.102;2024-03-23T02:23:05;93657.00;;;13.30
15575;BMP180;7888;46.748;8.102;2024-03-23T02:25:33;93671.00;;;13.30
15575;BMP180;7888;46.748;8.102;2024-03-23T02:28:00;93643.00;;;13.30
15575;BMP180;7888;46.748;8.102;2024-03-23T02:30:26;93679.00;;;13.20
15575;BMP180;7888;46.748;8.102;2024-03-23T02:32:52;93653.00;;;13.30
15575;BMP180;7888;46.748;8.102;2024-03-23T02:35:18;93677.00;;;13.20
15575;BMP180;7888;46.748;8.102;2024-03-23T02:37:43;93667.00;;;13.20
15575;BMP180;7888;46.748;8.102;2024-03-23T02:40:09;93627.00;;;13.20
15575;BMP180;7888;46.748;8.102;2024-03-23T02:42:35;93656.00;;;13.10
15575;BMP180;7888;46.748;8.102;2024-03-23T02:45:00;93642.00;;;13.10
15575;BMP180;7888;46.748;8.102;2024-03-23T02:47:26;93651.00;;;13.00
15575;BMP180;7888;46.748;8.102;2024-03-23T02:49:52;93664.00;;;13.00
15575;BMP180;7888;46.748;8.102;2024-03-23T02:52:18;93656.00;;;13.00
15575;BMP180;7888;46.748;8.102;2024-03-23T02:54:43;93649.00;;;13.00
15575;BMP180;7888;46.748;8.102;2024-03-23T02:57:11;93637.00;;;13.00
15575;BMP180;7888;46.748;8.102;2024-03-23T02:59:36;93630.00;;;13.00
15575;BMP180;7888;46.748;8.102;2024-03-23T03:02:02;93648.00;;;12.90
15575;BMP180;7888;46.748;8.102;2024-03-23T03:04:30;93623.00;;;12.90
15575;BMP180;7888;46.748;8.102;2024-03-23T03:06:56;93613.00;;;12.90
15575;BMP180;7888;46.748;8.102;2024-03-23T03:09:22;93637.00;;;12.80
15575;BMP180;7888;46.748;8.102;2024-03-23T03:11:48;93597.00;;;12.80
15575;BMP180;7888;46.748;8.102;2024-03-23T03:14:13;93607.00;;;12.80
15575;BMP180;7888;46.748;8.102;2024-03-23T03:16:39;93624.00;;;12.80
15575;BMP180;7888;46.748;8.102;2024-03-23T03:19:05;93609.00;;;12.70
15575;BMP180;7888;46.748;8.102;2024-03-23T03:21:32;93597.00;;;12.70
15575;BMP180;7888;46.748;8.102;2024-03-23T03:23:58;93608.00;;;12.70
15575;BMP180;7888;46.748;8.102;2024-03-23T03:26:24;93597.00;;;12.70
15575;BMP180;7888;46.748;8.102;2024-03-23T03:28:50;93570.00;;;12.60
15575;BMP180;7888;46.748;8.102;2024-03-23T03:31:16;93604.00;;;12.60
15575;BMP180;7888;46.748;8.102;2024-03-23T03:33:43;93590.00;;;12.50
15575;BMP180;7888;46.748;8.102;2024-03-23T03:36:09;93597.00;;;12.50
15575;BMP180;7888;46.748;8.102;2024-03-23T03:38:35;93595.00;;;12.40
15575;BMP180;7888;46.748;8.102;2024-03-23T03:41:04;93587.00;;;12.40
15575;BMP180;7888;46.748;8.102;2024-03-23T03:43:32;93589.00;;;12.30
15575;BMP180;7888;46.748;8.102;2024-03-23T03:45:59;93585.00;;;12.30
15575;BMP180;7888;46.748;8.102;2024-03-23T03:48:25;93579.00;;;12.30
15575;BMP180;7888;46.748;8.102;2024-03-23T03:50:52;93583.00;;;12.30
15575;BMP180;7888;46.748;8.102;2024-03-23T03:53:18;93565.00;;;12.40
15575;BMP180;7888;46.748;8.102;2024-03-23T03:55:44;93553.00;;;12.40
15575;BMP180;7888;46.748;8.102;2024-03-23T03:58:09;93573.00;;;12.40
15575;BMP180;7888;46.748;8.102;2024-03-23T04:00:35;93554.00;;;12.40
15575;BMP180;7888;46.748;8.102;2024-03-23T04:03:01;93567.00;;;12.40
15575;BMP180;7888;46.748;8.102;2024-03-23T04:05:27;93559.00;;;12.50
15575;BMP180;7888;46.748;8.102;2024-03-23T04:07:53;93554.00;;;12.50
15575;BMP180;7888;46.748;8.102;2024-03-23T04:10:20;93534.00;;;12.50
15575;BMP180;7888;46.748;8.102;2024-03-23T04:12:47;93543.00;;;12.50
15575;BMP180;7888;46.748;8.102;2024-03-23T04:15:13;93536.00;;;12.50
15575;BMP180;7888;46.748;8.102;2024-03-23T04:17:39;93528.00;;;12.50
15575;BMP180;7888;46.748;8.102;2024-03-23T04:20:07;93526.00;;;12.50
15575;BMP180;7888;46.748;8.102;2024-03-23T04:22:37;93528.00;;;12.50
15575;BMP180;7888;46.748;8.102;2024-03-23T04:25:03;93482.00;;;12.50
15575;BMP180;7888;46.748;8.102;2024-03-23T04:27:33;93516.00;;;12.50
15575;BMP180;7888;46.748;8.102;2024-03-23T04:29:59;93489.00;;;12.50
15575;BMP180;7888;46.748;8.102;2024-03-23T04:32:27;93513.00;;;12.50
15575;BMP180;7888;46.748;8.102;2024-03-23T04:34:54;93478.00;;;12.50
15575;BMP180;7888;46.748;8.102;2024-03-23T04:37:20;93497.00;;;12.50
15575;BMP180;7888;46.748;8.102;2024-03-23T04:39:47;93519.00;;;12.50
15575;BMP180;7888;46.748;8.102;2024-03-23T04:42:15;93513.00;;;12.50
15575;BMP180;7888;46.748;8.102;2024-03-23T04:44:41;93485.00;;;12.50
15575;BMP180;7888;46.748;8.102;2024-03-23T04:47:07;93467.00;;;12.50
15575;BMP180;7888;46.748;8.102;2024-03-23T04:49:33;93447.00;;;12.50
15575;BMP180;7888;46.748;8.102;2024-03-23T04:51:59;93456.00;;;12.40
15575;BMP180;7888;46.748;8.102;2024-03-23T04:54:24;93448.00;;;12.40
15575;BMP180;7888;46.748;8.102;2024-03-23T04:56:50;93458.00;;;12.40
15575;BMP180;7888;46.748;8.102;2024-03-23T04:59:16;93462.00;;;12.40
15575;BMP180;7888;46.748;8.102;2024-03-23T05:01:41;93425.00;;;12.40
15575;BMP180;7888;46.748;8.102;2024-03-23T05:04:08;93452.00;;;12.40
15575;BMP180;7888;46.748;8.102;2024-03-23T05:06:34;93455.00;;;12.40
15575;BMP180;7888;46.748;8.102;2024-03-23T05:09:01;93415.00;;;12.50
15575;BMP180;7888;46.748;8.102;2024-03-23T05:11:36;93427.00;;;12.50
15575;BMP180;7888;46.748;8.102;2024-03-23T05:14:01;93390.00;;;12.50
15575;BMP180;7888;46.748;8.102;2024-03-23T05:16:28;93416.00;;;12.50
15575;BMP180;7888;46.748;8.102;2024-03-23T05:18:54;93411.00;;;12.50
15575;BMP180;7888;46.748;8.102;2024-03-23T05:21:20;93403.00;;;12.50
15575;BMP180;7888;46.748;8.102;2024-03-23T05:23:46;93411.00;;;12.50
15575;BMP180;7888;46.748;8.102;2024-03-23T05:26:11;93415.00;;;12.50
15575;BMP180;7888;46.748;8.102;2024-03-23T05:28:37;93395.00;;;12.40
15575;BMP180;7888;46.748;8.102;2024-03-23T05:31:03;93409.00;;;12.40
15575;BMP180;7888;46.748;8.102;2024-03-23T05:33:29;93396.00;;;12.40
15575;BMP180;7888;46.748;8.102;2024-03-23T05:36:01;93378.00;;;12.40
15575;BMP180;7888;46.748;8.102;2024-03-23T05:38:27;93362.00;;;12.40
15575;BMP180;7888;46.748;8.102;2024-03-23T05:40:58;93371.00;;;12.40
15575;BMP180;7888;46.748;8.102;2024-03-23T05:43:24;93381.00;;;12.40
15575;BMP180;7888;46.748;8.102;2024-03-23T05:46:00;93386.00;;;12.40
15575;BMP180;7888;46.748;8.102;2024-03-23T05:48:31;93372.00;;;12.50
15575;BMP180;7888;46.748;8.102;2024-03-23T05:50:57;93383.00;;;12.50
15575;BMP180;7888;46.748;8.102;2024-03-23T05:53:23;93368.00;;;12.60
15575;BMP180;7888;46.748;8.102;2024-03-23T05:55:50;93383.00;;;12.60
15575;BMP180;7888;46.748;8.102;2024-03-23T05:58:17;93380.00;;;12.60
15575;BMP180;7888;46.748;8.102;2024-03-23T06:00:44;93390.00;;;12.60
15575;BMP180;7888;46.748;8.102;2024-03-23T06:03:10;93381.00;;;12.60
15575;BMP180;7888;46.748;8.102;2024-03-23T06:05:39;93366.00;;;12.60
15575;BMP180;7888;46.748;8.102;2024-03-23T06:08:06;93374.00;;;12.70
15575;BMP180;7888;46.748;8.102;2024-03-23T06:10:35;93381.00;;;12.70
15575;BMP180;7888;46.748;8.102;2024-03-23T06:13:00;93389.00;;;12.70
15575;BMP180;7888;46.748;8.102;2024-03-23T06:15:26;93409.00;;;12.80
15575;BMP180;7888;46.748;8.102;2024-03-23T06:17:52;93418.00;;;12.80
15575;BMP180;7888;46.748;8.102;2024-03-23T06:20:18;93430.00;;;12.80
15575;BMP180;7888;46.748;8.102;2024-03-23T06:22:44;93468.00;;;12.80
15575;BMP180;7888;46.748;8.102;2024-03-23T06:25:10;93486.00;;;12.80
15575;BMP180;7888;46.748;8.102;2024-03-23T06:27:38;93458.00;;;12.80
15575;BMP180;7888;46.748;8.102;2024-03-23T06:30:05;93499.00;;;12.80
15575;BMP180;7888;46.748;8.102;2024-03-23T06:32:32;93464.00;;;12.80
15575;BMP180;7888;46.748;8.102;2024-03-23T06:34:58;93496.00;;;12.90
15575;BMP180;7888;46.748;8.102;2024-03-23T06:37:24;93498.00;;;12.90
15575;BMP180;7888;46.748;8.102;2024-03-23T06:39:50;93505.00;;;12.90
15575;BMP180;7888;46.748;8.102;2024-03-23T06:42:16;93504.00;;;12.80
15575;BMP180;7888;46.748;8.102;2024-03-23T06:44:41;93507.00;;;12.80
15575;BMP180;7888;46.748;8.102;2024-03-23T06:47:07;93527.00;;;12.70
15575;BMP180;7888;46.748;8.102;2024-03-23T06:49:33;93544.00;;;12.70
15575;BMP180;7888;46.748;8.102;2024-03-23T06:51:58;93558.00;;;12.70
15575;BMP180;7888;46.748;8.102;2024-03-23T06:54:25;93565.00;;;12.70
15575;BMP180;7888;46.748;8.102;2024-03-23T06:56:51;93558.00;;;12.70
15575;BMP180;7888;46.748;8.102;2024-03-23T06:59:16;93552.00;;;12.70
15575;BMP180;7888;46.748;8.102;2024-03-23T07:01:43;93560.00;;;12.80
15575;BMP180;7888;46.748;8.102;2024-03-23T07:04:08;93561.00;;;12.80
15575;BMP180;7888;46.748;8.102;2024-03-23T07:06:34;93581.00;;;12.90
15575;BMP180;7888;46.748;8.102;2024-03-23T07:09:00;93610.00;;;12.90
15575;BMP180;7888;46.748;8.102;2024-03-23T07:11:26;93602.00;;;13.00
15575;BMP180;7888;46.748;8.102;2024-03-23T07:13:53;93617.00;;;13.00
15575;BMP180;7888;46.748;8.102;2024-03-23T07:16:22;93604.00;;;13.00
15575;BMP180;7888;46.748;8.102;2024-03-23T07:18:50;93609.00;;;13.00
15575;BMP180;7888;46.748;8.102;2024-03-23T07:21:15;93621.00;;;13.10
15575;BMP180;7888;46.748;8.102;2024-03-23T07:23:44;93623.00;;;13.10
15575;BMP180;7888;46.748;8.102;2024-03-23T07:26:11;93633.00;;;13.10
15575;BMP180;7888;46.748;8.102;2024-03-23T07:28:37;93617.00;;;13.10
15575;BMP180;7888;46.748;8.102;2024-03-23T07:31:12;93656.00;;;13.10
15575;BMP180;7888;46.748;8.102;2024-03-23T07:33:44;93654.00;;;13.00
15575;BMP180;7888;46.748;8.102;2024-03-23T07:36:10;93644.00;;;13.00
15575;BMP180;7888;46.748;8.102;2024-03-23T07:38:36;93648.00;;;13.00
15575;BMP180;7888;46.748;8.102;2024-03-23T07:41:08;93649.00;;;13.00
15575;BMP180;7888;46.748;8.102;2024-03-23T07:43:35;93653.00;;;13.10
15575;BMP180;7888;46.748;8.102;2024-03-23T07:46:01;93655.00;;;13.10
15575;BMP180;7888;46.748;8.102;2024-03-23T07:48:29;93651.00;;;13.10
15575;BMP180;7888;46.748;8.102;2024-03-23T07:51:20;93681.00;;;13.10
15575;BMP180;7888;46.748;8.102;2024-03-23T07:53:46;93652.00;;;13.10
15575;BMP180;7888;46.748;8.102;2024-03-23T07:56:14;93647.00;;;13.10
15575;BMP180;7888;46.748;8.102;2024-03-23T07:58:44;93667.00;;;13.10
15575;BMP180;7888;46.748;8.102;2024-03-23T08:01:12;93668.00;;;13.10
15575;BMP180;7888;46.748;8.102;2024-03-23T08:03:42;93655.00;;;13.10
15575;BMP180;7888;46.748;8.102;2024-03-23T08:06:17;93671.00;;;13.10
15575;BMP180;7888;46.748;8.102;2024-03-23T08:08:44;93658.00;;;13.20
15575;BMP180;7888;46.748;8.102;2024-03-23T08:11:11;93644.00;;;13.20
15575;BMP180;7888;46.748;8.102;2024-03-23T08:13:41;93660.00;;;13.20
15575;BMP180;7888;46.748;8.102;2024-03-23T08:16:07;93649.00;;;13.30
15575;BMP180;7888;46.748;8.102;2024-03-23T08:18:34;93674.00;;;13.30
15575;BMP180;7888;46.748;8.102;2024-03-23T08:21:02;93675.00;;;13.30
15575;BMP180;7888;46.748;8.102;2024-03-23T08:23:29;93663.00;;;13.40
15575;BMP180;7888;46.748;8.102;2024-03-23T08:26:03;93656.00;;;13.40
15575;BMP180;7888;46.748;8.102;2024-03-23T08:28:30;93672.00;;;13.40
15575;BMP180;7888;46.748;8.102;2024-03-23T08:30:56;93640.00;;;13.50
15575;BMP180;7888;46.748;8.102;2024-03-23T08:33:23;93650.00;;;13.50
15575;BMP180;7888;46.748;8.102;2024-03-23T08:36:03;93674.00;;;13.50
15575;BMP180;7888;46.748;8.102;2024-03-23T08:38:29;93678.00;;;13.50
15575;BMP180;7888;46.748;8.102;2024-03-23T08:40:59;93681.00;;;13.60
15575;BMP180;7888;46.748;8.102;2024-03-23T08:43:26;93673.00;;;13.60
15575;BMP180;7888;46.748;8.102;2024-03-23T08:45:52;93686.00;;;13.60
15575;BMP180;7888;46.748;8.102;2024-03-23T08:48:21;93684.00;;;13.70
15575;BMP180;7888;46.748;8.102;2024-03-23T08:51:07;93631.00;;;13.60
15575;BMP180;7888;46.748;8.102;2024-03-23T08:53:34;93688.00;;;13.70
15575;BMP180;7888;46.748;8.102;2024-03-23T08:56:01;93691.00;;;13.70
15575;BMP180;7888;46.748;8.102;2024-03-23T08:58:29;93688.00;;;13.80
15575;BMP180;7888;46.748;8.102;2024-03-23T09:00:57;93693.00;;;13.80
15575;BMP180;7888;46.748;8.102;2024-03-23T09:03:26;93658.00;;;13.80
15575;BMP180;7888;46.748;8.102;2024-03-23T09:05:52;93676.00;;;13.80
15575;BMP180;7888;46.748;8.102;2024-03-23T09:08:19;93678.00;;;13.90
15575;BMP180;7888;46.748;8.102;2024-03-23T09:10:45;93676.00;;;13.90
15575;BMP180;7888;46.748;8.102;2024-03-23T09:13:10;93690.00;;;13.90
15575;BMP180;7888;46.748;8.102;2024-03-23T09:15:45;93695.00;;;13.90
15575;BMP180;7888;46.748;8.102;2024-03-23T09:18:11;93672.00;;;14.00
15575;BMP180;7888;46.748;8.102;2024-03-23T09:20:36;93671.00;;;14.00
15575;BMP180;7888;46.748;8.102;2024-03-23T09:23:02;93707.00;;;14.00
15575;BMP180;7888;46.748;8.102;2024-03-23T09:25:28;93710.00;;;13.80
15575;BMP180;7888;46.748;8.102;2024-03-23T09:27:54;93718.00;;;14.10
15575;BMP180;7888;46.748;8.102;2024-03-23T09:30:19;93704.00;;;14.10
15575;BMP180;7888;46.748;8.102;2024-03-23T09:32:46;93727.00;;;14.00
15575;BMP180;7888;46.748;8.102;2024-03-23T09:35:12;93741.00;;;14.00
15575;BMP180;7888;46.748;8.102;2024-03-23T09:37:41;93742.00;;;14.00
15575;BMP180;7888;46.748;8.102;2024-03-23T09:40:10;93769.00;;;14.00
15575;BMP180;7888;46.748;8.102;2024-03-23T09:42:37;93765.00;;;14.00
15575;BMP180;7888;46.748;8.102;2024-03-23T09:45:06;93751.00;;;14.00
15575;BMP180;7888;46.748;8.102;2024-03-23T09:47:35;93760.00;;;14.00
15575;BMP180;7888;46.748;8.102;2024-03-23T09:50:02;93766.00;;;13.90
15575;BMP180;7888;46.748;8.102;2024-03-23T09:52:30;93772.00;;;13.90
15575;BMP180;7888;46.748;8.102;2024-03-23T09:54:56;93784.00;;;13.90
15575;BMP180;7888;46.748;8.102;2024-03-23T09:57:22;93781.00;;;13.90
15575;BMP180;7888;46.748;8.102;2024-03-23T09:59:48;93793.00;;;13.90
15575;BMP180;7888;46.748;8.102;2024-03-23T10:02:15;93804.00;;;13.90
15575;BMP180;7888;46.748;8.102;2024-03-23T10:04:43;93785.00;;;13.90
15575;BMP180;7888;46.748;8.102;2024-03-23T10:07:18;93810.00;;;13.90
15575;BMP180;7888;46.748;8.102;2024-03-23T10:09:45;93793.00;;;13.90
15575;BMP180;7888;46.748;8.102;2024-03-23T10:12:13;93780.00;;;13.90
15575;BMP180;7888;46.748;8.102;2024-03-23T10:14:42;93796.00;;;13.90
15575;BMP180;7888;46.748;8.102;2024-03-23T10:17:22;93797.00;;;13.80
15575;BMP180;7888;46.748;8.102;2024-03-23T10:19:52;93795.00;;;13.80
15575;BMP180;7888;46.748;8.102;2024-03-23T10:22:20;93794.00;;;13.70
15575;BMP180;7888;46.748;8.102;2024-03-23T10:24:47;93799.00;;;13.70
15575;BMP180;7888;46.748;8.102;2024-03-23T10:27:21;93804.00;;;13.60
15575;BMP180;7888;46.748;8.102;2024-03-23T10:29:49;93804.00;;;13.60
15575;BMP180;7888;46.748;8.102;2024-03-23T10:32:17;93777.00;;;13.50
15575;BMP180;7888;46.748;8.102;2024-03-23T10:34:44;93808.00;;;13.50
15575;BMP180;7888;46.748;8.102;2024-03-23T10:37:11;93791.00;;;13.50
15575;BMP180;7888;46.748;8.102;2024-03-23T10:39:39;93789.00;;;13.50
15575;BMP180;7888;46.748;8.102;2024-03-23T10:42:08;93784.00;;;13.50
15575;BMP180;7888;46.748;8.102;2024-03-23T10:44:34;93793.00;;;13.50
15575;BMP180;7888;46.748;8.102;2024-03-23T10:47:02;93824.00;;;13.50
15575;BMP180;7888;46.748;8.102;2024-03-23T10:49:35;93811.00;;;13.40
15575;BMP180;7888;46.748;8.102;2024-03-23T10:52:05;93814.00;;;13.40
15575;BMP180;7888;46.748;8.102;2024-03-23T10:54:33;93784.00;;;13.50
15575;BMP180;7888;46.748;8.102;2024-03-23T10:57:23;93813.00;;;13.50
15575;BMP180;7888;46.748;8.102;2024-03-23T10:59:53;93805.00;;;13.50
15575;BMP180;7888;46.748;8.102;2024-03-23T11:02:20;93818.00;;;13.50
15575;BMP180;7888;46.748;8.102;2024-03-23T11:04:46;93826.00;;;13.40
15575;BMP180;7888;46.748;8.102;2024-03-23T11:09:50;93829.00;;;13.40
15575;BMP180;7888;46.748;8.102;2024-03-23T11:15:11;93867.00;;;13.30
15575;BMP180;7888;46.748;8.102;2024-03-23T11:17:38;93857.00;;;13.40
15575;BMP180;7888;46.748;8.102;2024-03-23T11:20:06;93869.00;;;13.40
15575;BMP180;7888;46.748;8.102;2024-03-23T11:22:45;93835.00;;;13.30
15575;BMP180;7888;46.748;8.102;2024-03-23T11:25:13;93851.00;;;13.30
15575;BMP180;7888;46.748;8.102;2024-03-23T11:27:39;93854.00;;;13.30
15575;BMP180;7888;46.748;8.102;2024-03-23T11:30:31;93842.00;;;13.30
15575;BMP180;7888;46.748;8.102;2024-03-23T11:32:58;93845.00;;;13.30
15575;BMP180;7888;46.748;8.102;2024-03-23T11:38:12;93848.00;;;13.30
15575;BMP180;7888;46.748;8.102;2024-03-23T11:43:10;93859.00;;;13.30
15575;BMP180;7888;46.748;8.102;2024-03-23T11:45:49;93864.00;;;13.30
15575;BMP180;7888;46.748;8.102;2024-03-23T11:48:20;93852.00;;;13.30
15575;BMP180;7888;46.748;8.102;2024-03-23T11:50:49;93870.00;;;13.40
15575;BMP180;7888;46.748;8.102;2024-03-23T11:53:23;93853.00;;;13.40
15575;BMP180;7888;46.748;8.102;2024-03-23T11:55:59;93875.00;;;13.40
15575;BMP180;7888;46.748;8.102;2024-03-23T11:58:27;93865.00;;;13.50
15575;BMP180;7888;46.748;8.102;2024-03-23T12:01:02;93848.00;;;13.50
15575;BMP180;7888;46.748;8.102;2024-03-23T12:03:29;93859.00;;;13.60
15575;BMP180;7888;46.748;8.102;2024-03-23T12:05:59;93870.00;;;13.60
15575;BMP180;7888;46.748;8.102;2024-03-23T12:08:31;93862.00;;;13.60
15575;BMP180;7888;46.748;8.102;2024-03-23T12:11:09;93881.00;;;13.60
15575;BMP180;7888;46.748;8.102;2024-03-23T12:13:37;93846.00;;;13.60
15575;BMP180;7888;46.748;8.102;2024-03-23T12:16:20;93855.00;;;13.60
15575;BMP180;7888;46.748;8.102;2024-03-23T12:18:50;93849.00;;;13.60
15575;BMP180;7888;46.748;8.102;2024-03-23T12:21:20;93849.00;;;13.60
15575;BMP180;7888;46.748;8.102;2024-03-23T12:23:49;93829.00;;;13.60
15575;BMP180;7888;46.748;8.102;2024-03-23T12:26:15;93837.00;;;13.60
15575;BMP180;7888;46.748;8.102;2024-03-23T12:28:43;93810.00;;;13.60
15575;BMP180;7888;46.748;8.102;2024-03-23T12:31:08;93825.00;;;13.50
15575;BMP180;7888;46.748;8.102;2024-03-23T12:33:34;93813.00;;;13.60
15575;BMP180;7888;46.748;8.102;2024-03-23T12:36:00;93828.00;;;13.70
15575;BMP180;7888;46.748;8.102;2024-03-23T12:38:25;93826.00;;;13.80
15575;BMP180;7888;46.748;8.102;2024-03-23T12:40:52;93825.00;;;13.80
15575;BMP180;7888;46.748;8.102;2024-03-23T12:43:18;93824.00;;;13.90
15575;BMP180;7888;46.748;8.102;2024-03-23T12:45:48;93811.00;;;14.00
15575;BMP180;7888;46.748;8.102;2024-03-23T12:48:14;93809.00;;;14.10
15575;BMP180;7888;46.748;8.102;2024-03-23T12:50:40;93815.00;;;14.20
15575;BMP180;7888;46.748;8.102;2024-03-23T12:53:06;93813.00;;;14.20
15575;BMP180;7888;46.748;8.102;2024-03-23T12:55:34;93793.00;;;14.40
15575;BMP180;7888;46.748;8.102;2024-03-23T12:58:00;93791.00;;;14.60
15575;BMP180;7888;46.748;8.102;2024-03-23T13:00:26;93792.00;;;14.80
15575;BMP180;7888;46.748;8.102;2024-03-23T13:02:51;93789.00;;;15.00
15575;BMP180;7888;46.748;8.102;2024-03-23T13:05:17;93782.00;;;15.30
15575;BMP180;7888;46.748;8.102;2024-03-23T13:07:43;93784.00;;;15.60
15575;BMP180;7888;46.748;8.102;2024-03-23T13:10:09;93785.00;;;15.70
15575;BMP180;7888;46.748;8.102;2024-03-23T13:12:35;93770.00;;;15.90
15575;BMP180;7888;46.748;8.102;2024-03-23T13:15:01;93769.00;;;16.00
15575;BMP180;7888;46.748;8.102;2024-03-23T13:17:27;93793.00;;;16.10
15575;BMP180;7888;46.748;8.102;2024-03-23T13:19:54;93787.00;;;16.10
15575;BMP180;7888;46.748;8.102;2024-03-23T13:22:21;93791.00;;;16.10
15575;BMP180;7888;46.748;8.102;2024-03-23T13:24:47;93781.00;;;16.10
15575;BMP180;7888;46.748;8.102;2024-03-23T13:27:13;93778.00;;;16.00
15575;BMP180;7888;46.748;8.102;2024-03-23T13:29:39;93790.00;;;16.00
15575;BMP180;7888;46.748;8.102;2024-03-23T13:32:05;93796.00;;;16.00
15575;BMP180;7888;46.748;8.102;2024-03-23T13:34:32;93786.00;;;16.00
15575;BMP180;7888;46.748;8.102;2024-03-23T13:36:59;93787.00;;;16.00
15575;BMP180;7888;46.748;8.102;2024-03-23T13:39:25;93770.00;;;16.00
15575;BMP180;7888;46.748;8.102;2024-03-23T13:41:53;93773.00;;;16.00
15575;BMP180;7888;46.748;8.102;2024-03-23T13:44:21;93775.00;;;15.90
15575;BMP180;7888;46.748;8.102;2024-03-23T13:46:47;93768.00;;;15.80
15575;BMP180;7888;46.748;8.102;2024-03-23T13:49:31;93738.00;;;15.80
15575;BMP180;7888;46.748;8.102;2024-03-23T13:51:59;93750.00;;;15.80
15575;BMP180;7888;46.748;8.102;2024-03-23T13:54:26;93758.00;;;15.70
15575;BMP180;7888;46.748;8.102;2024-03-23T13:56:54;93737.00;;;15.60
15575;BMP180;7888;46.748;8.102;2024-03-23T13:59:20;93729.00;;;15.60
15575;BMP180;7888;46.748;8.102;2024-03-23T14:01:46;93724.00;;;15.60
15575;BMP180;7888;46.748;8.102;2024-03-23T14:04:13;93716.00;;;15.70
15575;BMP180;7888;46.748;8.102;2024-03-23T14:06:39;93695.00;;;15.70
15575;BMP180;7888;46.748;8.102;2024-03-23T14:09:06;93728.00;;;15.80
15575;BMP180;7888;46.748;8.102;2024-03-23T14:11:35;93702.00;;;15.80
15575;BMP180;7888;46.748;8.102;2024-03-23T14:14:03;93725.00;;;15.80
15575;BMP180;7888;46.748;8.102;2024-03-23T14:16:30;93719.00;;;15.90
15575;BMP180;7888;46.748;8.102;2024-03-23T14:18:56;93696.00;;;15.90
15575;BMP180;7888;46.748;8.102;2024-03-23T14:21:22;93703.00;;;15.90
15575;BMP180;7888;46.748;8.102;2024-03-23T14:23:48;93681.00;;;16.00
15575;BMP180;7888;46.748;8.102;2024-03-23T14:26:13;93695.00;;;16.00
15575;BMP180;7888;46.748;8.102;2024-03-23T14:28:39;93694.00;;;16.00
15575;BMP180;7888;46.748;8.102;2024-03-23T14:31:05;93696.00;;;16.00
15575;BMP180;7888;46.748;8.102;2024-03-23T14:33:39;93672.00;;;16.00
15575;BMP180;7888;46.748;8.102;2024-03-23T14:36:11;93690.00;;;16.00
15575;BMP180;7888;46.748;8.102;2024-03-23T14:38:37;93670.00;;;16.00
15575;BMP180;7888;46.748;8.102;2024-03-23T14:41:03;93681.00;;;16.00
15575;BMP180;7888;46.748;8.102;2024-03-23T14:43:30;93682.00;;;16.10
15575;BMP180;7888;46.748;8.102;2024-03-23T14:46:17;93671.00;;;16.00
15575;BMP180;7888;46.748;8.102;2024-03-23T14:48:44;93667.00;;;16.00
15575;BMP180;7888;46.748;8.102;2024-03-23T14:51:12;93678.00;;;15.90
15575;BMP180;7888;46.748;8.102;2024-03-23T14:53:40;93682.00;;;15.80
15575;BMP180;7888;46.748;8.102;2024-03-23T14:56:08;93691.00;;;15.70
15575;BMP180;7888;46.748;8.102;2024-03-23T14:58:37;93674.00;;;15.80
15575;BMP180;7888;46.748;8.102;2024-03-23T15:01:04;93693.00;;;15.80
15575;BMP180;7888;46.748;8.102;2024-03-23T15:03:31;93694.00;;;15.80
15575;BMP180;7888;46.748;8.102;2024-03-23T15:05:58;93682.00;;;15.70
15575;BMP180;7888;46.748;8.102;2024-03-23T15:08:25;93645.00;;;15.70
15575;BMP180;7888;46.748;8.102;2024-03-23T15:10:51;93668.00;;;15.80
15575;BMP180;7888;46.748;8.102;2024-03-23T15:13:17;93649.00;;;15.80
15575;BMP180;7888;46.748;8.102;2024-03-23T15:15:44;93664.00;;;15.80
15575;BMP180;7888;46.748;8.102;2024-03-23T15:18:14;93677.00;;;15.70
15575;BMP180;7888;46.748;8.102;2024-03-23T15:20:59;93663.00;;;15.70
15575;BMP180;7888;46.748;8.102;2024-03-23T15:23:30;93687.00;;;15.70
15575;BMP180;7888;46.748;8.102;2024-03-23T15:26:02;93681.00;;;15.70
15575;BMP180;7888;46.748;8.102;2024-03-23T15:28:29;93688.00;;;15.60